Time;durP1;ratioP1;P1;durP2;ratioP2;P2;SDS_P1;SDS_P2;PMS_P1;PMS_P2;Temp;Humidity;BMP_temperature;BMP_pressure;BME280_temperature;BME280_humidity;BME280_pressure;Samples;Min_cycle;Max_cycle;Signal;HPM_P1;HPM_P2
2022/08/25 00:01:10;;;;;;;10.18;5.10;;;;;;;20.68;58.82;100978.64;1693681;82;21044;-64
2022/08/25 00:03:37;;;;;;;8.73;4.75;;;;;;;20.68;58.79;100979.50;1699781;83;21055;-64
2022/08/25 00:06:05;;;;;;;10.23;4.75;;;;;;;20.69;58.96;100978.98;1699732;82;21141;-65
2022/08/25 00:08:33;;;;;;;11.30;5.28;;;;;;;20.73;58.92;100974.45;1683679;83;21515;-65
2022/08/25 00:11:01;;;;;;;10.32;5.25;;;;;;;20.76;58.85;100977.27;1708186;82;21049;-63
2022/08/25 00:13:28;;;;;;;9.33;5.10;;;;;;;20.76;58.63;100975.45;1713231;82;21012;-65
2022/08/25 00:15:55;;;;;;;15.53;5.87;;;;;;;20.75;58.53;100979.13;1699885;83;21055;-65
2022/08/25 00:18:21;;;;;;;9.20;4.85;;;;;;;20.76;58.28;100978.61;1690375;83;21214;-65
2022/08/25 00:20:48;;;;;;;12.33;5.25;;;;;;;20.74;58.18;100969.42;1701513;81;21543;-65
2022/08/25 00:23:15;;;;;;;11.10;5.37;;;;;;;20.72;58.18;100974.63;1702417;82;21542;-65
2022/08/25 00:25:41;;;;;;;12.98;5.80;;;;;;;20.66;58.37;100977.99;1693491;83;21080;-65
2022/08/25 00:28:09;;;;;;;12.68;4.97;;;;;;;20.62;58.43;100973.98;1684301;82;21138;-64
2022/08/25 00:30:35;;;;;;;12.28;5.72;;;;;;;20.54;58.66;100974.36;1690741;83;21122;-65
2022/08/25 00:33:03;;;;;;;11.60;5.45;;;;;;;20.49;59.00;100971.86;1697345;82;21068;-65
2022/08/25 00:35:30;;;;;;;11.55;5.15;;;;;;;20.44;59.13;100975.05;1701304;81;21028;-65
2022/08/25 00:37:56;;;;;;;11.80;5.67;;;;;;;20.42;59.30;100974.39;1676471;83;21078;-64
2022/08/25 00:40:24;;;;;;;12.10;5.00;;;;;;;20.37;59.45;100978.09;1687634;83;21158;-65
2022/08/25 00:42:50;;;;;;;9.48;5.15;;;;;;;20.33;59.56;100978.94;1678534;83;22292;-65
2022/08/25 00:45:17;;;;;;;13.62;5.78;;;;;;;20.30;59.57;100977.12;1696651;82;21067;-65
2022/08/25 00:47:44;;;;;;;9.30;4.45;;;;;;;20.26;59.55;100979.78;1679585;83;21131;-65
2022/08/25 00:50:10;;;;;;;8.90;4.78;;;;;;;20.22;59.52;100980.63;1677771;83;21111;-65
2022/08/25 00:52:41;;;;;;;11.22;5.03;;;;;;;20.27;59.50;100982.80;1687699;83;21035;-65
2022/08/25 00:55:20;;;;;;;9.05;5.60;;;;;;;20.30;59.61;100974.45;1693147;83;21143;-65
2022/08/25 00:57:53;;;;;;;9.40;5.20;;;;;;;20.30;59.71;100975.78;1681920;83;21091;-65
2022/08/25 01:00:27;;;;;;;11.03;4.87;;;;;;;20.27;59.87;100972.94;1701871;83;21491;-65
2022/08/25 01:02:55;;;;;;;10.63;5.53;;;;;;;20.28;59.66;100975.95;1707716;82;21095;-65
2022/08/25 01:05:22;;;;;;;9.23;4.95;;;;;;;20.31;59.53;100974.28;1688284;83;21069;-65
2022/08/25 01:07:49;;;;;;;9.08;5.17;;;;;;;20.27;59.62;100971.60;1700591;83;21140;-65
2022/08/25 01:10:17;;;;;;;11.25;5.67;;;;;;;20.23;59.69;100973.78;1687695;83;21557;-65
2022/08/25 01:12:44;;;;;;;7.97;5.33;;;;;;;20.20;59.81;100975.97;1698817;82;21527;-65
2022/08/25 01:15:12;;;;;;;13.18;5.40;;;;;;;20.14;60.06;100976.17;1692235;83;21566;-65
2022/08/25 01:17:49;;;;;;;11.93;5.08;;;;;;;20.12;60.19;100973.32;1690306;83;21104;-65
2022/08/25 01:20:18;;;;;;;8.28;4.75;;;;;;;20.06;60.54;100966.84;1690597;82;21983;-65
2022/08/25 01:22:45;;;;;;;9.15;4.87;;;;;;;20.05;60.88;100969.16;1677805;83;21127;-65
2022/08/25 01:25:36;;;;;;;9.30;5.17;;;;;;;20.07;60.90;100965.81;1685785;83;21115;-65
2022/08/25 01:28:03;;;;;;;9.95;5.17;;;;;;;20.12;61.15;100968.80;1698044;82;21050;-65
2022/08/25 01:30:30;;;;;;;9.90;5.42;;;;;;;20.11;61.26;100964.99;1715507;83;21069;-65
2022/08/25 01:32:56;;;;;;;10.63;4.95;;;;;;;20.10;61.53;100965.48;1714325;82;23140;-65
2022/08/25 01:35:23;;;;;;;8.88;5.47;;;;;;;20.09;61.59;100970.98;1700860;82;21481;-65
2022/08/25 01:37:49;;;;;;;9.75;5.83;;;;;;;20.05;61.96;100969.16;1695243;82;21050;-65
2022/08/25 01:40:16;;;;;;;12.58;5.53;;;;;;;20.01;62.22;100970.02;1696079;83;21114;-65
2022/08/25 01:43:03;;;;;;;9.38;5.00;;;;;;;20.00;62.53;100967.51;1695315;82;21078;-66
2022/08/25 01:45:29;;;;;;;8.90;4.37;;;;;;;19.99;62.82;100970.69;1702455;82;21769;-65
2022/08/25 01:47:56;;;;;;;11.50;5.00;;;;;;;20.03;62.93;100971.17;1696072;82;21011;-65
2022/08/25 01:50:23;;;;;;;14.75;6.20;;;;;;;20.04;62.98;100968.85;1715336;82;21082;-64
2022/08/25 01:53:01;;;;;;;14.15;6.22;;;;;;;20.02;63.55;100974.36;1711872;83;21129;-64
2022/08/25 01:58:13;;;;;;;10.80;5.58;;;;;;;20.18;64.35;100966.79;1797228;77;22669;-64
2022/08/25 02:00:45;;;;;;;9.88;5.12;;;;;;;20.21;64.27;100969.64;1772987;79;21090;-64
2022/08/25 02:03:11;;;;;;;10.65;5.20;;;;;;;20.21;64.41;100970.97;1775940;78;21217;-65
2022/08/25 02:05:38;;;;;;;10.43;5.05;;;;;;;20.21;64.48;100972.31;1812003;78;21517;-65
2022/08/25 02:08:04;;;;;;;10.25;4.55;;;;;;;20.19;64.58;100975.63;1792494;78;21489;-65
2022/08/25 02:10:32;;;;;;;8.58;4.60;;;;;;;20.18;64.31;100977.98;1784822;80;20986;-65
2022/08/25 02:12:59;;;;;;;9.93;5.37;;;;;;;20.16;64.32;100971.48;1782391;80;21557;-64
2022/08/25 02:15:25;;;;;;;8.50;4.70;;;;;;;20.17;63.77;100979.84;1774091;80;21260;-65
2022/08/25 02:17:52;;;;;;;11.75;5.60;;;;;;;20.16;63.50;100969.31;1773127;78;21054;-65
2022/08/25 02:20:18;;;;;;;9.65;5.05;;;;;;;20.15;63.69;100981.83;1769735;78;21508;-65
2022/08/25 02:22:45;;;;;;;7.42;4.37;;;;;;;20.16;62.35;100978.16;1772031;80;21086;-65
2022/08/25 02:25:11;;;;;;;7.78;4.12;;;;;;;20.20;60.41;100976.80;1778851;80;21049;-64
2022/08/25 02:27:38;;;;;;;12.80;5.05;;;;;;;20.17;59.43;100974.50;1779070;79;21133;-65
2022/08/25 02:30:06;;;;;;;8.93;4.47;;;;;;;20.13;58.59;100973.66;1769271;80;21062;-65
2022/08/25 02:32:33;;;;;;;9.78;4.53;;;;;;;20.10;58.19;100975.34;1786416;78;21089;-65
2022/08/25 02:34:59;;;;;;;11.75;5.03;;;;;;;20.06;58.09;100984.20;1783909;80;21526;-65
2022/08/25 02:37:26;;;;;;;7.20;3.77;;;;;;;20.01;58.19;100982.03;1773465;78;21849;-65
2022/08/25 02:39:52;;;;;;;9.48;5.15;;;;;;;19.97;58.25;100983.87;1787602;80;21129;-66
2022/08/25 02:42:20;;;;;;;8.48;4.45;;;;;;;19.94;58.23;100977.53;1784692;78;21062;-66
2022/08/25 02:44:47;;;;;;;9.95;5.35;;;;;;;19.90;58.31;100979.70;1775467;78;21509;-66
2022/08/25 02:47:14;;;;;;;11.10;4.67;;;;;;;19.88;58.26;100975.05;1771912;80;21494;-65
2022/08/25 02:49:41;;;;;;;10.82;4.62;;;;;;;19.85;58.13;100980.72;1777935;80;21105;-65
2022/08/25 02:52:08;;;;;;;9.10;4.60;;;;;;;19.82;58.26;100976.56;1757599;80;21138;-65
2022/08/25 02:54:35;;;;;;;13.18;4.97;;;;;;;19.79;58.33;100982.23;1776447;78;21528;-65
2022/08/25 02:57:02;;;;;;;8.85;4.75;;;;;;;19.75;58.02;100982.73;1769131;80;21486;-65
2022/08/25 02:59:30;;;;;;;14.33;4.80;;;;;;;19.70;58.26;100981.86;1767514;80;21132;-65
2022/08/25 03:01:56;;;;;;;14.70;4.75;;;;;;;19.66;57.96;100977.36;1752103;80;21133;-64
2022/08/25 03:04:23;;;;;;;11.12;5.12;;;;;;;19.63;57.85;100970.20;1758252;80;21822;-65
2022/08/25 03:06:51;;;;;;;11.30;4.67;;;;;;;19.60;58.07;100970.05;1771663;79;21060;-65
2022/08/25 03:09:17;;;;;;;11.10;4.47;;;;;;;19.60;58.05;100982.06;1765771;79;21054;-66
2022/08/25 03:11:45;;;;;;;9.98;4.08;;;;;;;19.65;57.84;100982.39;1759970;80;21418;-66
2022/08/25 03:14:12;;;;;;;8.50;4.25;;;;;;;19.72;58.00;100984.37;1762061;79;20988;-65
2022/08/25 03:16:42;;;;;;;11.28;5.15;;;;;;;19.73;57.89;100979.37;1757587;80;21129;-65
2022/08/25 03:19:07;;;;;;;10.10;4.50;;;;;;;19.74;57.76;100979.72;1758625;80;21066;-66
2022/08/25 03:21:37;;;;;;;10.23;4.87;;;;;;;19.71;57.87;100984.88;1753526;80;21130;-63
2022/08/25 03:24:04;;;;;;;7.53;5.00;;;;;;;19.68;58.24;100982.55;1732460;80;21078;-64
2022/08/25 03:29:17;;;;;;;9.70;5.22;;;;;;;19.62;58.11;100969.37;1768402;79;22296;-65
2022/08/25 03:31:44;;;;;;;9.53;4.67;;;;;;;19.56;58.24;100971.38;1767302;80;21027;-65
2022/08/25 03:34:12;;;;;;;9.03;4.47;;;;;;;19.55;58.42;100975.54;1760639;80;21004;-66
2022/08/25 03:36:39;;;;;;;14.58;5.08;;;;;;;19.52;58.35;100982.54;1755693;80;21126;-66
2022/08/25 03:39:07;;;;;;;13.55;5.42;;;;;;;19.49;58.40;100983.22;1761405;80;21054;-66
2022/08/25 03:41:34;;;;;;;8.43;4.65;;;;;;;19.47;58.33;100978.55;1759019;80;21236;-66
2022/08/25 03:44:02;;;;;;;12.43;5.50;;;;;;;19.46;58.42;100975.53;1760290;79;21098;-66
2022/08/25 03:46:32;;;;;;;10.85;4.47;;;;;;;19.45;58.43;100983.23;1757410;80;21131;-65
2022/08/25 03:49:03;;;;;;;12.63;4.92;;;;;;;19.46;58.65;100976.87;1756382;79;21051;-66
2022/08/25 03:51:35;;;;;;;10.03;4.87;;;;;;;19.56;58.47;100971.88;1759807;80;21011;-65
2022/08/25 03:54:02;;;;;;;7.97;4.60;;;;;;;19.59;58.32;100974.22;1755467;80;21134;-65
2022/08/25 03:56:30;;;;;;;9.80;5.35;;;;;;;19.61;58.36;100975.70;1757287;80;21039;-66
2022/08/25 03:58:56;;;;;;;12.88;4.80;;;;;;;19.63;58.50;100973.69;1769312;79;21042;-65
2022/08/25 04:01:23;;;;;;;9.45;5.12;;;;;;;19.65;58.12;100974.86;1770286;80;21062;-65
2022/08/25 04:03:49;;;;;;;11.15;4.90;;;;;;;19.65;57.84;100974.86;1769151;79;21074;-66
2022/08/25 04:06:16;;;;;;;12.70;5.30;;;;;;;19.67;57.78;100972.88;1765561;80;22170;-66
2022/08/25 04:08:43;;;;;;;8.53;5.25;;;;;;;19.68;57.78;100974.53;1769173;80;21022;-66
2022/08/25 04:11:18;;;;;;;8.70;5.22;;;;;;;19.65;57.69;100973.05;1766048;79;21353;-65
2022/08/25 04:13:45;;;;;;;;;;;;;;;19.64;57.83;100973.21;1773498;80;21106;-66
2022/08/25 04:16:20;;;;;;;11.22;5.58;;;;;;;19.63;58.07;100962.19;1767600;79;20152;-65
2022/08/25 04:18:46;;;;;;;12.70;5.10;;;;;;;19.60;58.24;100967.86;1765031;79;21466;-66
2022/08/25 04:21:13;;;;;;;9.08;4.87;;;;;;;19.61;58.40;100972.20;1772910;80;21062;-65
2022/08/25 04:23:41;;;;;;;10.75;4.95;;;;;;;19.60;58.59;100967.86;1766598;79;21056;-66
2022/08/25 04:26:18;;;;;;;9.93;4.90;;;;;;;19.63;58.68;100966.20;1769684;80;21034;-66
2022/08/25 04:28:45;;;;;;;9.03;5.40;;;;;;;19.72;58.77;100969.69;1772954;79;21058;-66
2022/08/25 04:31:15;;;;;;;9.18;5.05;;;;;;;19.80;58.83;100965.70;1767981;80;21244;-67
2022/08/25 04:33:41;;;;;;;10.00;5.33;;;;;;;19.85;58.87;100964.22;1772696;80;21111;-66
2022/08/25 04:36:10;;;;;;;10.95;4.95;;;;;;;19.89;58.59;100959.84;1766769;80;21398;-66
2022/08/25 04:38:38;;;;;;;11.53;5.87;;;;;;;19.90;58.07;100957.00;1774841;79;21009;-66
2022/08/25 04:41:05;;;;;;;8.45;5.10;;;;;;;19.93;58.02;100959.34;1770702;80;21091;-67
2022/08/25 04:43:32;;;;;;;9.60;5.42;;;;;;;19.95;58.23;100953.83;1766782;80;21080;-66
2022/08/25 04:45:59;;;;;;;9.95;5.50;;;;;;;19.98;57.79;100961.51;1773629;80;21056;-66
2022/08/25 04:48:25;;;;;;;10.35;5.80;;;;;;;20.00;57.31;100956.83;1765414;80;21050;-64
2022/08/25 04:50:52;;;;;;;8.80;5.53;;;;;;;20.02;57.37;100946.80;1765534;80;21017;-66
2022/08/25 04:53:20;;;;;;;8.28;5.80;;;;;;;20.05;57.21;100959.81;1772158;80;21062;-66
2022/08/25 04:55:47;;;;;;;11.15;5.75;;;;;;;20.07;56.89;100949.78;1761976;80;21124;-66
2022/08/25 04:58:14;;;;;;;12.78;6.08;;;;;;;20.09;56.93;100944.27;1759115;80;21089;-66
2022/08/25 05:00:42;;;;;;;10.08;5.42;;;;;;;20.11;57.27;100940.95;1752795;80;21046;-67
2022/08/25 05:03:09;;;;;;;12.03;5.58;;;;;;;20.12;56.93;100941.27;1756253;80;21035;-67
2022/08/25 05:05:36;;;;;;;9.75;5.75;;;;;;;20.12;56.86;100938.08;1756033;80;21063;-66
2022/08/25 05:08:05;;;;;;;13.18;6.42;;;;;;;20.15;56.94;100940.41;1759961;80;21240;-66
2022/08/25 05:10:32;;;;;;;9.45;6.30;;;;;;;20.18;57.41;100948.60;1763503;79;21695;-67
2022/08/25 05:13:00;;;;;;;9.05;5.53;;;;;;;20.24;57.29;100941.24;1760800;79;21129;-65
2022/08/25 05:18:12;;;;;;;10.95;5.72;;;;;;;20.47;56.91;100939.95;1757783;79;21098;-67
2022/08/25 05:20:38;;;;;;;11.40;6.25;;;;;;;20.54;56.03;100937.42;1754936;80;21851;-66
2022/08/25 05:23:05;;;;;;;11.40;6.37;;;;;;;20.59;55.67;100938.58;1760372;80;21418;-66
2022/08/25 05:25:32;;;;;;;13.22;6.20;;;;;;;20.64;56.25;100933.22;1757484;79;21073;-66
2022/08/25 05:27:58;;;;;;;8.88;5.97;;;;;;;20.70;56.23;100933.87;1762620;80;21048;-66
2022/08/25 05:30:25;;;;;;;8.95;5.97;;;;;;;20.73;56.21;100934.34;1759294;80;21102;-66
2022/08/25 05:32:51;;;;;;;16.32;6.60;;;;;;;20.78;56.17;100935.98;1759734;79;21139;-66
2022/08/25 05:35:19;;;;;;;11.85;5.90;;;;;;;20.82;56.07;100939.65;1760471;80;21569;-67
2022/08/25 05:37:46;;;;;;;7.95;5.60;;;;;;;20.86;56.57;100937.76;1762041;80;21125;-67
2022/08/25 05:40:13;;;;;;;9.65;5.78;;;;;;;20.90;56.47;100929.72;1763115;79;21063;-67
2022/08/25 05:42:40;;;;;;;11.10;6.22;;;;;;;20.95;56.41;100930.02;1759369;79;21058;-66
2022/08/25 05:45:08;;;;;;;9.88;6.08;;;;;;;21.01;55.97;100928.47;1754205;80;21137;-67
2022/08/25 05:47:35;;;;;;;11.88;6.70;;;;;;;21.07;55.75;100936.31;1763016;80;21065;-67
2022/08/25 05:50:02;;;;;;;8.65;6.30;;;;;;;21.13;56.29;100931.08;1757719;80;21107;-67
2022/08/25 05:52:29;;;;;;;9.98;5.90;;;;;;;21.20;55.98;100933.87;1758640;80;21702;-65
2022/08/25 05:54:56;;;;;;;8.90;6.05;;;;;;;21.27;55.66;100931.30;1760584;79;21615;-66
2022/08/25 05:57:22;;;;;;;9.78;6.17;;;;;;;21.36;54.72;100936.91;1767027;80;21228;-67
2022/08/25 05:59:49;;;;;;;8.90;6.45;;;;;;;21.44;53.50;100942.70;1774710;79;21046;-66
2022/08/25 06:05:00;;;;;;;8.65;6.10;;;;;;;21.56;53.38;100946.63;1757438;80;21035;-67
2022/08/25 06:07:28;;;;;;;8.73;5.47;;;;;;;21.65;52.80;100940.69;1769840;80;21097;-65
2022/08/25 06:09:55;;;;;;;12.05;6.37;;;;;;;21.73;52.83;100937.11;1767617;80;22353;-65
2022/08/25 06:12:21;;;;;;;10.35;6.80;;;;;;;21.82;52.80;100944.89;1775349;79;21048;-66
2022/08/25 06:14:50;;;;;;;9.80;5.92;;;;;;;21.89;52.61;100945.81;1768146;79;21146;-66
2022/08/25 06:17:17;;;;;;;11.43;6.03;;;;;;;21.99;52.44;100946.88;1771220;79;21029;-66
2022/08/25 06:19:43;;;;;;;10.60;6.30;;;;;;;22.08;52.43;100945.77;1767003;80;21437;-65
2022/08/25 06:22:10;;;;;;;15.88;6.40;;;;;;;22.15;51.36;100937.81;1761673;80;21077;-66
2022/08/25 06:24:37;;;;;;;10.15;5.70;;;;;;;22.21;51.53;100930.90;1766162;80;21107;-66
2022/08/25 06:27:04;;;;;;;11.90;6.60;;;;;;;22.28;51.31;100940.37;1778503;80;21599;-65
2022/08/25 06:29:31;;;;;;;13.60;7.00;;;;;;;22.35;50.88;100935.95;1766087;80;21117;-65
2022/08/25 06:31:58;;;;;;;12.63;6.28;;;;;;;22.42;51.16;100939.53;1762366;80;21040;-66
2022/08/25 06:34:24;;;;;;;11.73;6.22;;;;;;;22.47;50.45;100937.12;1774551;79;21153;-66
2022/08/25 06:36:51;;;;;;;10.68;6.33;;;;;;;22.53;50.61;100931.53;1771943;80;21046;-66
2022/08/25 06:39:18;;;;;;;17.48;7.00;;;;;;;22.59;50.35;100930.76;1768563;80;21044;-66
2022/08/25 06:41:47;;;;;;;12.47;5.90;;;;;;;22.66;50.31;100926.30;1763562;80;21081;-66
2022/08/25 06:44:13;;;;;;;9.25;5.87;;;;;;;22.75;50.52;100927.86;1765811;79;21105;-66
2022/08/25 06:46:40;;;;;;;9.83;6.50;;;;;;;22.84;50.22;100929.08;1768418;80;21130;-65
2022/08/25 06:49:06;;;;;;;17.23;6.40;;;;;;;22.89;50.31;100927.48;1768431;80;21022;-66
2022/08/25 06:51:36;;;;;;;9.10;6.00;;;;;;;22.97;50.32;100923.85;1781882;79;21059;-63
2022/08/25 06:54:05;;;;;;;9.75;6.30;;;;;;;23.05;49.40;100926.41;1771009;79;20979;-66
2022/08/25 06:56:32;;;;;;;12.10;6.47;;;;;;;23.13;48.98;100924.13;1777220;80;21125;-65
2022/08/25 06:59:04;;;;;;;10.43;6.20;;;;;;;23.19;48.89;100921.50;1761081;80;21141;-64
2022/08/25 07:01:31;;;;;;;8.30;5.70;;;;;;;23.25;48.61;100923.94;1768641;80;21015;-64
2022/08/25 07:03:59;;;;;;;11.12;6.85;;;;;;;23.32;48.97;100924.00;1765645;80;21105;-63
2022/08/25 07:06:28;;;;;;;9.43;5.83;;;;;;;23.38;48.48;100928.57;1754369;79;22298;-64
2022/08/25 07:08:54;;;;;;;9.13;6.15;;;;;;;23.44;48.61;100932.36;1772911;79;21078;-62
2022/08/25 07:11:21;;;;;;;10.78;6.62;;;;;;;23.51;48.08;100919.28;1748839;82;21173;-62
2022/08/25 07:13:48;;;;;;;10.93;6.33;;;;;;;23.58;47.70;100926.05;1765917;80;21070;-62
2022/08/25 07:16:16;;;;;;;9.78;6.55;;;;;;;23.66;47.50;100927.24;1768767;79;21078;-62
2022/08/25 07:18:44;;;;;;;11.75;5.90;;;;;;;23.75;47.08;100925.23;1759134;80;21098;-63
2022/08/25 07:21:11;;;;;;;11.68;6.95;;;;;;;23.83;47.24;100923.77;1756666;80;21109;-64
2022/08/25 07:23:40;;;;;;;11.53;6.58;;;;;;;23.90;46.56;100924.63;1766349;80;21131;-64
2022/08/25 07:26:12;;;;;;;11.20;6.42;;;;;;;23.98;46.59;100920.97;1763946;79;21086;-63
2022/08/25 07:28:40;;;;;;;11.30;6.35;;;;;;;24.05;46.87;100909.72;1765087;79;21058;-62
2022/08/25 07:31:07;;;;;;;10.55;6.00;;;;;;;24.13;45.65;100909.27;1767025;80;21108;-63
2022/08/25 07:33:34;;;;;;;10.60;6.10;;;;;;;24.20;46.01;100906.91;1763699;79;21074;-64
2022/08/25 07:36:02;;;;;;;10.95;6.00;;;;;;;24.27;45.59;100903.72;1692318;82;21153;-63
2022/08/25 07:38:28;;;;;;;9.00;5.87;;;;;;;24.37;45.66;100902.53;1708115;82;21561;-63
2022/08/25 07:41:02;;;;;;;9.05;6.03;;;;;;;24.45;45.54;100890.25;1706716;83;21570;-63
2022/08/25 07:43:29;;;;;;;11.95;5.70;;;;;;;24.54;45.86;100895.75;1725643;81;21102;-63
2022/08/25 07:45:56;;;;;;;10.82;5.55;;;;;;;24.64;45.95;100898.91;1731871;81;21534;-64
2022/08/25 07:48:22;;;;;;;9.63;6.15;;;;;;;24.74;45.04;100895.01;1734821;81;21551;-63
2022/08/25 07:50:48;;;;;;;10.10;6.28;;;;;;;24.82;44.95;100886.22;1732424;80;21058;-62
2022/08/25 07:53:16;;;;;;;12.15;6.47;;;;;;;24.92;44.82;100886.34;1733141;82;21072;-64
2022/08/25 07:55:42;;;;;;;8.88;5.53;;;;;;;25.02;44.59;100889.46;1730161;82;21079;-65
2022/08/25 07:58:09;;;;;;;8.68;5.50;;;;;;;25.11;44.21;100884.70;1730667;80;21066;-63
2022/08/25 08:00:36;;;;;;;11.15;5.58;;;;;;;25.20;44.05;100886.98;1730181;80;21137;-64
2022/08/25 08:03:05;;;;;;;8.35;5.55;;;;;;;25.27;43.95;100877.59;1693750;84;21102;-63
2022/08/25 08:05:31;;;;;;;9.70;6.05;;;;;;;25.37;43.63;100872.60;1724130;82;21081;-64
2022/08/25 08:07:58;;;;;;;11.25;6.00;;;;;;;25.47;43.34;100867.30;1767379;80;21067;-64
2022/08/25 08:10:26;;;;;;;9.93;6.00;;;;;;;25.54;43.42;100866.26;1747747;79;21057;-63
2022/08/25 08:12:52;;;;;;;8.50;6.00;;;;;;;25.63;43.85;100868.20;1778069;79;21231;-64
2022/08/25 08:15:19;;;;;;;15.55;5.75;;;;;;;25.70;43.83;100866.84;1767275;79;21054;-63
2022/08/25 08:17:46;;;;;;;12.03;6.58;;;;;;;25.78;43.90;100860.69;1780217;79;21610;-63
2022/08/25 08:20:12;;;;;;;9.58;5.67;;;;;;;25.87;43.54;100852.38;1771435;79;21575;-63
2022/08/25 08:22:41;;;;;;;10.48;6.15;;;;;;;25.94;42.81;100855.38;1774610;80;21057;-63
2022/08/25 08:25:09;;;;;;;11.73;5.65;;;;;;;26.03;42.75;100851.94;1767849;80;21111;-64
2022/08/25 08:27:35;;;;;;;9.05;5.72;;;;;;;26.11;42.39;100849.53;1766017;80;21070;-62
2022/08/25 08:30:04;;;;;;;9.73;5.35;;;;;;;26.21;42.32;100853.94;1769550;80;21497;-63
2022/08/25 08:32:31;;;;;;;10.88;6.15;;;;;;;26.30;42.39;100843.72;1774271;79;21562;-63
2022/08/25 08:34:57;;;;;;;8.95;4.80;;;;;;;26.39;41.54;100839.72;1764578;79;21482;-64
2022/08/25 08:37:24;;;;;;;8.13;5.08;;;;;;;26.49;41.46;100842.80;1766598;79;21551;-64
2022/08/25 08:39:51;;;;;;;8.73;5.97;;;;;;;26.59;40.93;100831.50;1761891;80;21603;-64
2022/08/25 08:42:35;;;;;;;8.78;5.25;;;;;;;26.69;40.85;100835.91;1767537;80;21045;-64
2022/08/25 08:45:36;;;;;;;8.98;5.40;;;;;;;26.81;40.53;100831.98;1766642;80;21693;-63
2022/08/25 08:48:14;;;;;;;7.47;4.35;;;;;;;26.93;40.49;100829.94;1769982;80;21069;-64
2022/08/25 08:51:01;;;;;;;8.45;4.72;;;;;;;27.04;39.55;100826.52;1763453;79;21130;-64
2022/08/25 08:53:57;;;;;;;8.83;5.55;;;;;;;27.13;39.59;100819.77;1748903;80;21117;-63
2022/08/25 08:56:30;;;;;;;8.30;4.70;;;;;;;27.23;39.34;100816.06;1742047;79;21600;-66
2022/08/25 08:59:13;;;;;;;8.48;4.83;;;;;;;27.36;38.18;100816.47;1774874;80;21034;-65
2022/08/25 09:01:58;;;;;;;6.42;4.67;;;;;;;27.48;38.90;100813.85;1765046;78;21042;-65
2022/08/25 09:04:36;;;;;;;8.20;4.60;;;;;;;27.60;37.27;100812.58;1760776;80;21109;-65
2022/08/25 09:07:07;;;;;;;9.55;4.80;;;;;;;27.74;37.35;100814.09;1799731;78;21027;-65
2022/08/25 09:09:34;;;;;;;10.03;4.45;;;;;;;27.86;37.42;100807.39;1766761;78;21051;-64
2022/08/25 09:12:22;;;;;;;9.55;4.95;;;;;;;28.00;36.08;100804.55;1737949;80;21058;-63
2022/08/25 09:15:21;;;;;;;9.80;4.30;;;;;;;28.09;35.62;100805.36;1768321;80;21759;-65
2022/08/25 09:18:05;;;;;;;7.00;4.25;;;;;;;28.21;35.76;100808.11;1769709;79;22151;-66
2022/08/25 09:20:56;;;;;;;8.97;5.57;;;;;;;28.34;36.35;100802.51;1767536;80;21463;-66
2022/08/25 09:23:50;;;;;;;7.35;4.05;;;;;;;28.49;35.88;100801.23;1769958;80;21046;-65
2022/08/25 09:26:59;;;;;;;7.12;3.77;;;;;;;28.63;35.59;100798.66;1773707;78;21052;-66
2022/08/25 09:29:29;;;;;;;9.15;3.25;;;;;;;28.73;35.00;100789.94;1717290;81;21010;-66
2022/08/25 09:31:57;;;;;;;7.30;3.40;;;;;;;28.87;34.04;100785.97;1759374;80;21276;-66
2022/08/25 09:34:27;;;;;;;14.98;3.50;;;;;;;29.01;34.29;100787.91;1725799;80;21081;-66
2022/08/25 09:36:54;;;;;;;10.15;3.33;;;;;;;29.16;34.04;100782.55;1767477;79;21046;-66
2022/08/25 09:39:21;;;;;;;7.90;2.98;;;;;;;29.28;33.66;100780.13;1764230;80;21170;-66
2022/08/25 09:41:57;;;;;;;8.60;3.37;;;;;;;29.39;32.15;100779.03;1775072;78;21050;-66
2022/08/25 09:44:40;;;;;;;9.70;2.83;;;;;;;29.47;32.22;100781.34;1765793;80;22045;-64
2022/08/25 09:47:19;;;;;;;6.67;2.75;;;;;;;29.55;32.80;100770.67;1764287;79;21062;-66
2022/08/25 09:49:49;;;;;;;4.75;2.40;;;;;;;29.64;32.37;100768.70;1766956;80;21098;-65
2022/08/25 09:52:33;;;;;;;5.42;2.50;;;;;;;29.75;32.75;100764.84;1767419;80;21066;-66
2022/08/25 09:55:14;;;;;;;4.45;2.33;;;;;;;29.86;31.99;100766.72;1775802;79;21696;-66
2022/08/25 09:57:47;;;;;;;6.30;2.58;;;;;;;29.98;31.10;100762.60;1779343;78;21737;-66
2022/08/25 10:00:32;;;;;;;4.70;2.30;;;;;;;30.10;30.34;100759.29;1781039;78;21093;-66
2022/08/25 10:03:21;;;;;;;8.95;2.83;;;;;;;30.23;30.10;100754.61;1760850;79;21066;-66
2022/08/25 10:06:10;;;;;;;6.30;2.70;;;;;;;30.31;29.37;100746.91;1767538;79;21104;-64
2022/08/25 10:08:48;;;;;;;5.00;2.87;;;;;;;30.38;27.89;100746.24;1766817;80;21569;-64
2022/08/25 10:11:39;;;;;;;6.58;2.60;;;;;;;30.42;27.52;100739.78;1780150;80;21231;-64
2022/08/25 10:14:27;;;;;;;5.75;2.67;;;;;;;30.47;27.51;100741.77;1751658;79;21055;-65
2022/08/25 10:17:23;;;;;;;7.25;2.30;;;;;;;30.53;28.05;100735.33;1767288;80;21049;-65
2022/08/25 10:19:52;;;;;;;6.45;2.58;;;;;;;30.61;28.52;100728.67;1743185;80;21072;-64
2022/08/25 10:22:33;;;;;;;8.10;2.72;;;;;;;30.66;28.86;100724.13;1767839;79;21046;-65
2022/08/25 10:24:59;;;;;;;5.33;2.40;;;;;;;30.72;28.94;100734.55;1763789;80;21129;-65
2022/08/25 10:27:51;;;;;;;5.83;2.58;;;;;;;30.81;28.25;100736.30;1767316;80;21060;-66
2022/08/25 10:30:47;;;;;;;5.17;2.25;;;;;;;30.91;27.99;100729.11;1772082;80;21048;-65
2022/08/25 10:33:40;;;;;;;8.98;2.70;;;;;;;31.04;28.67;100723.08;1772338;79;21051;-65
2022/08/25 10:36:32;;;;;;;8.55;2.30;;;;;;;31.16;28.75;100723.78;1773142;80;21522;-64
2022/08/25 10:39:00;;;;;;;10.88;2.87;;;;;;;31.27;29.05;100718.77;1761796;79;21228;-64
2022/08/25 10:41:42;;;;;;;6.75;2.80;;;;;;;31.35;27.07;100714.77;1750843;81;21050;-65
2022/08/25 10:47:16;;;;;;;5.85;3.00;;;;;;;31.33;26.85;100717.47;1768892;80;21063;-65
2022/08/25 10:49:46;;;;;;;7.92;2.98;;;;;;;31.32;27.55;100710.38;1759110;80;21133;-65
2022/08/25 10:52:33;;;;;;;8.58;3.20;;;;;;;31.40;27.58;100701.23;1778249;79;21048;-63
2022/08/25 10:55:11;;;;;;;8.23;3.15;;;;;;;31.51;27.76;100705.48;1700393;83;21083;-64
2022/08/25 10:57:52;;;;;;;8.55;3.00;;;;;;;31.66;26.99;100708.36;1704015;82;21080;-63
2022/08/25 11:00:22;;;;;;;8.50;2.70;;;;;;;31.75;27.54;100703.28;1713958;82;21129;-66
2022/08/25 11:03:18;;;;;;;7.35;2.85;;;;;;;31.81;27.17;100699.55;1703950;82;21043;-64
2022/08/25 11:06:04;;;;;;;6.85;2.72;;;;;;;31.89;27.24;100693.61;1755719;81;21534;-63
2022/08/25 11:08:41;;;;;;;5.30;2.67;;;;;;;31.96;26.61;100696.12;1758550;79;21577;-63
2022/08/25 11:11:32;;;;;;;6.65;2.70;;;;;;;32.03;26.10;100680.42;1747071;81;21498;-64
2022/08/25 11:14:20;;;;;;;5.78;2.70;;;;;;;32.05;25.43;100689.14;1748881;81;21082;-65
2022/08/25 11:17:02;;;;;;;8.65;3.08;;;;;;;32.08;26.06;100681.02;1753588;81;21058;-61
2022/08/25 11:19:44;;;;;;;5.05;2.58;;;;;;;32.15;26.89;100676.20;1756243;79;21573;-64
2022/08/25 11:22:44;;;;;;;5.08;2.98;;;;;;;32.26;26.75;100681.17;1755972;81;21090;-65
2022/08/25 11:25:17;;;;;;;5.62;3.17;;;;;;;32.31;25.60;100682.05;1754574;81;21037;-66
2022/08/25 11:27:58;;;;;;;5.53;3.00;;;;;;;32.27;26.02;100678.73;1756722;81;21126;-65
2022/08/25 11:30:24;;;;;;;6.33;2.83;;;;;;;32.20;26.60;100681.13;1756304;80;21514;-66
2022/08/25 11:32:52;;;;;;;6.37;3.27;;;;;;;32.14;26.45;100669.09;1759718;80;22774;-66
2022/08/25 11:35:39;;;;;;;6.33;2.90;;;;;;;32.15;26.46;100678.37;1757275;80;21518;-66
2022/08/25 11:38:35;;;;;;;5.15;2.95;;;;;;;32.22;26.08;100671.34;1734352;81;21529;-65
2022/08/25 11:41:47;;;;;;;5.37;3.27;;;;;;;32.29;26.10;100658.32;1754378;81;20984;-66
2022/08/25 11:44:51;;;;;;;6.37;3.37;;;;;;;32.46;26.72;100656.80;1749896;79;22584;-66
2022/08/25 11:47:50;;;;;;;6.65;3.02;;;;;;;32.64;26.54;100656.95;1745651;81;21127;-65
2022/08/25 11:50:31;;;;;;;7.50;2.92;;;;;;;32.80;26.86;100657.02;1748706;81;21085;-63
2022/08/25 11:53:21;;;;;;;6.03;3.62;;;;;;;32.86;25.73;100662.23;1756798;80;21130;-63
2022/08/25 11:55:53;;;;;;;4.60;2.77;;;;;;;32.87;25.21;100656.27;1729919;81;21054;-66